createdAt,value
2023-05-01T12:38:41.304Z,1012.42
2023-05-01T12:53:41.361Z,1012.16
2023-05-01T13:08:42.501Z,1012.11
2023-05-01T13:23:43.038Z,1011.91
2023-05-01T13:38:42.856Z,1011.71
2023-05-01T13:53:42.957Z,1011.65
2023-05-01T14:08:43.407Z,1011.54
2023-05-01T14:23:43.612Z,1011.25
2023-05-01T14:38:43.684Z,1011.26
2023-05-01T14:53:43.812Z,1011.03
2023-05-01T15:08:44.001Z,1010.97
2023-05-01T15:23:44.100Z,1010.82
2023-05-01T15:38:44.133Z,1010.84
2023-05-01T15:53:44.215Z,1010.71
2023-05-01T16:08:44.332Z,1010.58
2023-05-01T16:23:44.407Z,1010.55
2023-05-01T16:38:44.551Z,1010.55
2023-05-01T16:53:44.601Z,1010.57
2023-05-01T17:08:44.877Z,1010.60
2023-05-01T17:23:44.775Z,1010.48
2023-05-01T17:38:44.972Z,1010.49
2023-05-01T17:53:44.956Z,1010.37
2023-05-01T18:08:45.582Z,1010.34
2023-05-01T18:23:47.806Z,1010.24
2023-05-01T18:38:49.792Z,1010.25
2023-05-01T18:53:49.918Z,1010.32
2023-05-01T19:08:49.923Z,1010.49
2023-05-01T19:23:50.004Z,1010.52
2023-05-01T19:38:50.192Z,1010.50
2023-05-01T19:53:50.755Z,1010.52
2023-05-01T20:08:50.780Z,1010.44
2023-05-01T20:23:51.237Z,1010.46
2023-05-01T20:38:51.109Z,1010.37
2023-05-01T20:53:51.154Z,1010.44
2023-05-01T21:08:51.303Z,1010.40
2023-05-01T21:23:51.362Z,1010.35
2023-05-01T21:38:51.523Z,1010.52
2023-05-01T21:53:51.607Z,1010.55
2023-05-01T22:08:51.722Z,1010.64
2023-05-01T22:23:52.340Z,1010.65
2023-05-01T22:38:52.418Z,1010.68
2023-05-01T22:53:52.543Z,1010.65
2023-05-01T23:08:53.763Z,1010.68
2023-05-01T23:23:53.815Z,1010.66
2023-05-01T23:38:53.886Z,1010.56
2023-05-01T23:53:53.937Z,1010.61
